Bayside, Texas
Current Conditions -  °F | °C
As of 5:53 PM on Friday 21 Nov 2014 (Local Time) from KRKP Reporting Station
Overcast Overcast  
Wind Chill: 69°   Ceiling: 6000
Heat Index: 69°   Visibility: 9mi
Dew Point: 64°   Wind: 10mph
Humidity: 84%   Direction: 150°SSE
Pressure: 30.02"   Gusts: NA
Location:  28.09°N, 97.21°W
Report Text: KRKP 212353Z AUTO 15009KT 9SM BKN060 OVC080 21/18 A3002 RMK AO2 SLP168 T02060178 10250 20206 50003
Loading
Personal Weather Stations






























Interactive Weather Map New forecast layout! Learn more

10-Day Weather Forecast

Advertisements
Track Severe Weather on mobile